D/T METAR WX W/DIR W/SPE G/SPE TEMP DEWP
7/12/19 23:50 EGDR 072350Z AUTO 22030G41KT 1800 // OVC002/// 12/12 Q1006 SW (220°) 34.5mph 47.2mph 12°C 12°C
7/12/19 22:50 EGDR 072250Z AUTO 21027G39KT 2400 // BKN003/// 11/11 Q1006 SSW (210°) 31.1mph 44.9mph 11°C 11°C
7/12/19 21:50 EGDR 072150Z AUTO 21028KT 9000 // BKN007/// SCT015/// 11/10 Q1008 SSW (210°) 32.2mph 11°C 10°C
7/12/19 20:50 EGDR 072050Z AUTO 21022KT 9999 // OVC009/// 11/10 Q1010 SSW (210°) 25.3mph 11°C 10°C
7/12/19 19:50 EGDR 071950Z AUTO 22025KT 9999 // OVC010/// 11/09 Q1011 SW (220°) 28.8mph 11°C 9°C
7/12/19 18:50 EGDR 071850Z AUTO 22022KT 9999 // OVC012/// 11/09 Q1012 SW (220°) 25.3mph 11°C 9°C
7/12/19 17:50 EGDR 071750Z AUTO 22021KT 9999 // OVC012/// 10/09 Q1012 SW (220°) 24.2mph 10°C 9°C
7/12/19 16:50 EGDR 071650Z AUTO 22018KT 9999 // OVC009/// 10/09 Q1013 SW (220°) 20.7mph 10°C 9°C
7/12/19 15:50 EGDR 071550Z AUTO 23020KT 9999 // OVC008/// 10/09 Q1014 SW (230°) 23.0mph 10°C 9°C
7/12/19 14:50 EGDR 071450Z 23015KT 4000 -DZ FEW006 OVC010 10/09 Q1014 TEMPO 3000 RADZ SCT005 RMK GRN TEMPO YLO1 -DZ SW (230°) 17.3mph 10°C 9°C
7/12/19 14:19 EGDR 071419Z 22013KT 9999 SCT014 BKN018 11/08 Q1014 NOSIG RMK GRN GRN SW (220°) 15.0mph 11°C 8°C
7/12/19 13:50 EGDR 071350Z 23014KT 9999 FEW008 SCT010 BKN020 11/08 Q1014 NOSIG RMK GRN GRN SW (230°) 16.1mph 11°C 8°C
7/12/19 13:26 EGDR 071326Z 23012KT 9999 FEW008 SCT010 BKN020 11/09 Q1015 NOSIG GRN GRN SW (230°) 13.8mph 11°C 9°C
7/12/19 12:50 EGDR 071250Z 23012KT 9999 FEW008 SCT010 BKN020 11/09 Q1015 NOSIG RMK GRN GRN SW (230°) 13.8mph 11°C 9°C
7/12/19 12:23 EGDR 071223Z 24010KT 9999 FEW008 SCT010 BKN020 11/08 Q1015 NOSIG RMK GRN GRN WSW (240°) 11.5mph 11°C 8°C
7/12/19 11:50 EGDR 071150Z AUTO 24011KT 9999 // BKN013/// 11/09 Q1015 WSW (240°) 12.7mph 11°C 9°C
7/12/19 10:50 EGDR 071050Z AUTO 24008KT 9999 // SCT010/// 10/09 Q1016 WSW (240°) 9.2mph 10°C 9°C
7/12/19 09:50 EGDR 070950Z AUTO 27008KT 9999 // BKN010/// SCT023/// 09/09 Q1016 W (270°) 9.2mph 9°C 9°C
7/12/19 08:50 EGDR 070850Z AUTO 28011KT 9999 // FEW010/// BKN015/// 09/08 Q1016 W (280°) 12.7mph 9°C 8°C
7/12/19 07:50 EGDR 070750Z AUTO 26010KT 9999 // FEW018/// 09/08 Q1015 W (260°) 11.5mph 9°C 8°C
7/12/19 06:50 EGDR 070650Z AUTO 26007KT 9999 // BKN023/// 09/08 Q1016 W (260°) 8.1mph 9°C 8°C
7/12/19 05:50 EGDR 070550Z AUTO 27010KT 9999 // BKN022/// 09/08 Q1016 W (270°) 11.5mph 9°C 8°C
7/12/19 04:50 EGDR 070450Z AUTO 27009KT 9999 // BKN022/// BKN027/// 09/07 Q1015 W (270°) 10.4mph 9°C 7°C
7/12/19 03:50 EGDR 070350Z AUTO 27005KT 9999 // FEW015/// SCT023/// 08/07 Q1015 W (270°) 5.8mph 8°C 7°C
7/12/19 02:50 EGDR 070250Z AUTO 27008KT 9999 // BKN023/// 09/07 Q1014 W (270°) 9.2mph 9°C 7°C
7/12/19 01:50 EGDR 070150Z AUTO 28009KT 9999 // FEW029/// 09/07 Q1014 W (280°) 10.4mph 9°C 7°C
7/12/19 00:50 EGDR 070050Z AUTO 28010KT 9999 // FEW024/// SCT028/// 09/08 Q1014 W (280°) 11.5mph 9°C 8°C
6/12/19 23:50 EGDR 062350Z AUTO 28011KT 9999 // NCD 09/07 Q1014 W (280°) 12.7mph 9°C 7°C
6/12/19 22:50 EGDR 062250Z AUTO 27009KT 9999 // FEW032/// SCT039/// 09/08 Q1014 W (270°) 10.4mph 9°C 8°C
6/12/19 21:50 EGDR 062150Z AUTO 28012KT 9999 // SCT030/// 10/08 Q1013 W (280°) 13.8mph 10°C 8°C
6/12/19 20:50 EGDR 062050Z AUTO 28014KT 9999 // FEW016/// 09/07 Q1012 W (280°) 16.1mph 9°C 7°C
6/12/19 19:50 EGDR 061950Z AUTO 27013KT 9999 // BKN014/// 10/08 Q1012 W (270°) 15.0mph 10°C 8°C
6/12/19 18:50 EGDR 061850Z AUTO 29018KT 9999 // SCT021/// 10/08 Q1011 WNW (290°) 20.7mph 10°C 8°C
6/12/19 17:50 EGDR 061750Z AUTO 28015KT 9999 // FEW014/// 10/08 Q1011 W (280°) 17.3mph 10°C 8°C
6/12/19 16:50 EGDR 061650Z AUTO 28017KT 9999 // NCD 10/08 Q1010 W (280°) 19.6mph 10°C 8°C
6/12/19 15:50 EGDR 061550Z AUTO 28020KT 9999 // NCD 10/08 Q1009 W (280°) 23.0mph 10°C 8°C
6/12/19 15:22 EGDR 061522Z 28018G30KT 9999 FEW008 SCT030 11/09 Q1008 TEMPO SCT020 RMK BLU TEMPO WHT W (280°) 20.7mph 34.5mph 11°C 9°C
6/12/19 14:50 EGDR 061450Z 28016G28KT 8000 -DZ SCT008 SCT010 BKN020 11/10 Q1008 NOSIG RMK GRN GRN -DZ W (280°) 18.4mph 32.2mph 11°C 10°C
6/12/19 14:23 EGDR 061423Z 28018G32KT 9999 FEW008 SCT010 BKN020 12/10 Q1008 TEMPO 3000 -RADZ SCT005 RMK GRN TEMPO YLO1 W (280°) 20.7mph 36.8mph 12°C 10°C
6/12/19 13:50 EGDR 061350Z 27026KT 8000 VCSH SCT008 SCT010 BKN020 11/10 Q1008 REDZ TEMPO 3000 -RADZ SCT005 RMK GRN TEMPO YLO1 VCSH W (270°) 29.9mph 11°C 10°C
6/12/19 13:26 EGDR 061326Z 26014G27KT 2800 -RADZ SCT006 SCT008 BKN010 11/11 Q1008 NOSIG RMK YLO1 YLO1 -RA -DZ W (260°) 16.1mph 31.1mph 11°C 11°C
6/12/19 12:50 EGDR 061250Z 26012G24KT 6000 BR FEW005 SCT008 OVC018 11/11 Q1008 REDZ TEMPO 3000 -RADZ SCT005 RMK GRN BECMG YLO1 BR W (260°) 13.8mph 27.6mph 11°C 11°C
6/12/19 12:28 EGDR 061228Z 26011G23KT 8000 VCSH SCT004 SCT008 BKN014 11/11 Q1008 TEMPO SCT006 RMK YLO2 TEMPO YLO1 VCSH W (260°) 12.7mph 26.5mph 11°C 11°C
6/12/19 11:50 EGDR 061150Z 26011G23KT 3000 -DZ FEW001 SCT004 BKN020 11/11 Q1009 NOSIG RMK YLO2 YLO2 -DZ W (260°) 12.7mph 26.5mph 11°C 11°C
6/12/19 11:24 EGDR 061124Z 26014G25KT 3000 RADZ FEW001 BKN002 11/11 Q1009 NOSIG RMK AMB AMB RA DZ W (260°) 16.1mph 28.8mph 11°C 11°C
6/12/19 10:50 EGDR 061050Z 26012G27KT 2400 -DZ FEW001 BKN002 11/11 Q1009 / NOSIG RMK AMB AMB -DZ W (260°) 13.8mph 31.1mph 11°C 11°C
6/12/19 09:50 EGDR 060950Z AUTO 25016G28KT 3300 // OVC001/// 12/12 Q1009 WSW (250°) 18.4mph 32.2mph 12°C 12°C
6/12/19 08:50 EGDR 060850Z AUTO 25016G29KT 2700 // OVC001/// 12/12 Q1009 WSW (250°) 18.4mph 33.4mph 12°C 12°C